TimeCST,TemperatureF,Dew PointF,Humidity,Sea Level PressureIn,VisibilityMPH,Wind Direction,Wind SpeedMPH,Gust SpeedMPH,PrecipitationIn,Events,Conditions,WindDirDegrees,DateUTC
12:54 AM,28.0,21.9,78,30.36,10.0,NNW,8.1,-,N/A,,Overcast,330,2013-03-07 06:54:00
1:54 AM,28.0,21.9,78,30.38,10.0,NW,6.9,-,N/A,,Overcast,320,2013-03-07 07:54:00
2:54 AM,28.0,21.0,75,30.38,10.0,NNW,4.6,-,N/A,,Overcast,330,2013-03-07 08:54:00
3:54 AM,28.0,21.9,78,30.38,10.0,North,4.6,-,N/A,,Overcast,360,2013-03-07 09:54:00
4:36 AM,26.6,21.2,80,30.35,10.0,Calm,Calm,-,N/A,,Overcast,0,2013-03-07 10:36:00
4:54 AM,28.0,21.0,75,30.38,10.0,NNW,4.6,-,N/A,,Overcast,340,2013-03-07 10:54:00
5:54 AM,28.0,21.0,75,30.40,10.0,NNW,4.6,-,N/A,,Overcast,340,2013-03-07 11:54:00
6:54 AM,27.0,21.0,78,30.41,10.0,Calm,Calm,-,N/A,,Overcast,0,2013-03-07 12:54:00
7:54 AM,28.0,21.9,78,30.43,10.0,Calm,Calm,-,N/A,,Overcast,0,2013-03-07 13:54:00
8:54 AM,30.9,21.9,69,30.44,10.0,NNW,3.5,-,N/A,,Overcast,330,2013-03-07 14:54:00
9:54 AM,32.0,21.0,64,30.45,10.0,Calm,Calm,-,N/A,,Overcast,0,2013-03-07 15:54:00
10:54 AM,32.0,21.0,64,30.44,10.0,Calm,Calm,-,N/A,,Overcast,0,2013-03-07 16:54:00
11:54 AM,30.9,21.9,69,30.44,10.0,SSW,5.8,-,N/A,,Overcast,210,2013-03-07 17:54:00
12:54 PM,32.0,21.9,66,30.43,10.0,South,5.8,-,N/A,,Overcast,190,2013-03-07 18:54:00
1:54 PM,32.0,21.0,64,30.41,10.0,Calm,Calm,-,N/A,,Mostly Cloudy,0,2013-03-07 19:54:00
2:54 PM,32.0,21.9,66,30.43,10.0,SSW,3.5,-,N/A,,Mostly Cloudy,210,2013-03-07 20:54:00
3:54 PM,34.0,21.9,61,30.42,10.0,Calm,Calm,-,N/A,,Scattered Clouds,0,2013-03-07 21:54:00
4:54 PM,30.9,21.9,69,30.41,10.0,South,4.6,-,N/A,,Mostly Cloudy,190,2013-03-07 22:54:00
5:54 PM,28.9,21.0,72,30.43,10.0,South,4.6,-,N/A,,Scattered Clouds,180,2013-03-07 23:54:00
6:54 PM,28.0,21.0,75,30.44,10.0,Calm,Calm,-,N/A,,Scattered Clouds,0,2013-03-08 00:54:00
7:54 PM,25.0,19.9,81,30.44,10.0,Calm,Calm,-,N/A,,Partly Cloudy,0,2013-03-08 01:54:00
8:54 PM,23.0,19.9,88,30.45,10.0,Calm,Calm,-,N/A,,Scattered Clouds,0,2013-03-08 02:54:00
9:54 PM,19.9,17.1,89,30.45,9.0,Calm,Calm,-,N/A,,Partly Cloudy,0,2013-03-08 03:54:00
10:54 PM,19.0,17.1,92,30.45,7.0,Calm,Calm,-,N/A,,Partly Cloudy,0,2013-03-08 04:54:00
11:54 PM,17.1,15.1,92,30.43,6.0,ESE,6.9,-,N/A,Fog,Shallow Fog,120,2013-03-08 05:54:00